sensor_id;sensor_type;location;lat;lon;timestamp;P1;durP1;ratioP1;P2;durP2;ratioP2
37425;SDS011;23285;50.180;7.036;2022-07-23T05:59:45;9.20;;;8.30;;
37425;SDS011;23285;50.180;7.036;2022-07-23T06:02:30;9.70;;;8.70;;
37425;SDS011;23285;50.180;7.036;2022-07-23T06:05:18;8.70;;;7.80;;
37425;SDS011;23285;50.180;7.036;2022-07-23T06:08:04;11.10;;;8.20;;
37425;SDS011;23285;50.180;7.036;2022-07-23T06:10:49;9.53;;;8.07;;
37425;SDS011;23285;50.180;7.036;2022-07-23T06:13:34;8.20;;;7.40;;
37425;SDS011;23285;50.180;7.036;2022-07-23T06:16:20;9.67;;;8.77;;
37425;SDS011;23285;50.180;7.036;2022-07-23T06:19:05;10.10;;;8.37;;
37425;SDS011;23285;50.180;7.036;2022-07-23T06:21:50;11.40;;;8.00;;
37425;SDS011;23285;50.180;7.036;2022-07-23T06:24:35;11.10;;;8.27;;
37425;SDS011;23285;50.180;7.036;2022-07-23T06:27:21;9.50;;;8.17;;
37425;SDS011;23285;50.180;7.036;2022-07-23T06:30:08;7.83;;;7.03;;
37425;SDS011;23285;50.180;7.036;2022-07-23T06:32:55;11.47;;;7.90;;
37425;SDS011;23285;50.180;7.036;2022-07-23T06:35:41;9.57;;;8.57;;
37425;SDS011;23285;50.180;7.036;2022-07-23T06:38:26;9.97;;;7.93;;
37425;SDS011;23285;50.180;7.036;2022-07-23T06:41:11;9.67;;;7.93;;
37425;SDS011;23285;50.180;7.036;2022-07-23T06:43:56;9.67;;;8.10;;
37425;SDS011;23285;50.180;7.036;2022-07-23T06:46:41;9.70;;;7.70;;
37425;SDS011;23285;50.180;7.036;2022-07-23T06:49:26;8.77;;;7.87;;
37425;SDS011;23285;50.180;7.036;2022-07-23T06:52:13;7.47;;;6.77;;
37425;SDS011;23285;50.180;7.036;2022-07-23T06:54:58;9.13;;;6.80;;
37425;SDS011;23285;50.180;7.036;2022-07-23T06:57:44;7.63;;;6.83;;
37425;SDS011;23285;50.180;7.036;2022-07-23T07:00:29;8.50;;;7.60;;
37425;SDS011;23285;50.180;7.036;2022-07-23T07:03:16;7.67;;;6.93;;
37425;SDS011;23285;50.180;7.036;2022-07-23T07:06:02;8.83;;;6.47;;
37425;SDS011;23285;50.180;7.036;2022-07-23T07:08:47;11.97;;;6.43;;
37425;SDS011;23285;50.180;7.036;2022-07-23T07:11:33;8.00;;;7.20;;
37425;SDS011;23285;50.180;7.036;2022-07-23T07:14:18;7.03;;;6.33;;
37425;SDS011;23285;50.180;7.036;2022-07-23T07:17:03;9.27;;;7.50;;
37425;SDS011;23285;50.180;7.036;2022-07-23T07:19:49;8.60;;;7.23;;
37425;SDS011;23285;50.180;7.036;2022-07-23T07:22:35;8.03;;;6.50;;
37425;SDS011;23285;50.180;7.036;2022-07-23T07:25:20;7.77;;;6.47;;
37425;SDS011;23285;50.180;7.036;2022-07-23T07:28:06;8.60;;;6.30;;
37425;SDS011;23285;50.180;7.036;2022-07-23T07:30:51;7.50;;;6.57;;
37425;SDS011;23285;50.180;7.036;2022-07-23T07:33:36;7.43;;;6.53;;
37425;SDS011;23285;50.180;7.036;2022-07-23T07:36:22;6.57;;;5.90;;
37425;SDS011;23285;50.180;7.036;2022-07-23T07:39:07;7.23;;;6.17;;
37425;SDS011;23285;50.180;7.036;2022-07-23T07:41:54;11.10;;;7.00;;
37425;SDS011;23285;50.180;7.036;2022-07-23T07:44:39;10.00;;;6.83;;
37425;SDS011;23285;50.180;7.036;2022-07-23T07:47:25;7.93;;;6.17;;
37425;SDS011;23285;50.180;7.036;2022-07-23T07:50:10;6.93;;;5.87;;
37425;SDS011;23285;50.180;7.036;2022-07-23T07:52:55;7.27;;;6.57;;
37425;SDS011;23285;50.180;7.036;2022-07-23T07:55:41;7.20;;;5.80;;
37425;SDS011;23285;50.180;7.036;2022-07-23T07:58:26;6.67;;;5.70;;
37425;SDS011;23285;50.180;7.036;2022-07-23T08:01:11;9.70;;;6.63;;
37425;SDS011;23285;50.180;7.036;2022-07-23T08:03:56;7.37;;;5.93;;
37425;SDS011;23285;50.180;7.036;2022-07-23T08:06:41;9.27;;;6.10;;
37425;SDS011;23285;50.180;7.036;2022-07-23T08:09:26;5.60;;;5.00;;
37425;SDS011;23285;50.180;7.036;2022-07-23T08:12:11;7.17;;;5.30;;
37425;SDS011;23285;50.180;7.036;2022-07-23T08:14:56;6.37;;;5.70;;
37425;SDS011;23285;50.180;7.036;2022-07-23T08:17:42;5.70;;;5.13;;
37425;SDS011;23285;50.180;7.036;2022-07-23T08:20:28;7.97;;;4.87;;
37425;SDS011;23285;50.180;7.036;2022-07-23T08:23:13;7.13;;;5.13;;
37425;SDS011;23285;50.180;7.036;2022-07-23T08:25:58;6.40;;;5.10;;
37425;SDS011;23285;50.180;7.036;2022-07-23T08:28:44;5.27;;;4.77;;
37425;SDS011;23285;50.180;7.036;2022-07-23T08:31:29;6.97;;;4.27;;
37425;SDS011;23285;50.180;7.036;2022-07-23T08:34:14;6.20;;;4.70;;
37425;SDS011;23285;50.180;7.036;2022-07-23T08:36:59;5.00;;;4.30;;
37425;SDS011;23285;50.180;7.036;2022-07-23T08:39:44;5.97;;;5.37;;
37425;SDS011;23285;50.180;7.036;2022-07-23T08:42:29;5.57;;;5.00;;
37425;SDS011;23285;50.180;7.036;2022-07-23T08:45:19;5.60;;;4.60;;
37425;SDS011;23285;50.180;7.036;2022-07-23T08:48:08;5.70;;;4.13;;
37425;SDS011;23285;50.180;7.036;2022-07-23T08:50:58;6.07;;;4.93;;
37425;SDS011;23285;50.180;7.036;2022-07-23T08:53:43;4.70;;;4.07;;
37425;SDS011;23285;50.180;7.036;2022-07-23T08:56:29;5.33;;;3.97;;
37425;SDS011;23285;50.180;7.036;2022-07-23T08:59:15;6.50;;;4.00;;
37425;SDS011;23285;50.180;7.036;2022-07-23T09:02:00;5.50;;;4.10;;
37425;SDS011;23285;50.180;7.036;2022-07-23T09:04:45;5.10;;;4.43;;
37425;SDS011;23285;50.180;7.036;2022-07-23T09:07:30;5.77;;;4.10;;
37425;SDS011;23285;50.180;7.036;2022-07-23T09:10:15;4.23;;;3.70;;
37425;SDS011;23285;50.180;7.036;2022-07-23T09:13:00;4.30;;;3.70;;
37425;SDS011;23285;50.180;7.036;2022-07-23T09:15:49;6.40;;;4.67;;
37425;SDS011;23285;50.180;7.036;2022-07-23T09:18:37;5.57;;;4.10;;
37425;SDS011;23285;50.180;7.036;2022-07-23T09:21:24;5.00;;;3.90;;
37425;SDS011;23285;50.180;7.036;2022-07-23T09:24:10;5.10;;;3.60;;
37425;SDS011;23285;50.180;7.036;2022-07-23T09:27:00;4.20;;;3.80;;
37425;SDS011;23285;50.180;7.036;2022-07-23T09:29:54;5.40;;;3.80;;
37425;SDS011;23285;50.180;7.036;2022-07-23T09:32:40;7.60;;;4.10;;
37425;SDS011;23285;50.180;7.036;2022-07-23T09:35:43;5.80;;;3.80;;
37425;SDS011;23285;50.180;7.036;2022-07-23T09:38:32;5.30;;;4.10;;
37425;SDS011;23285;50.180;7.036;2022-07-23T09:41:18;5.70;;;4.13;;
37425;SDS011;23285;50.180;7.036;2022-07-23T09:44:06;4.30;;;3.57;;
37425;SDS011;23285;50.180;7.036;2022-07-23T09:46:57;3.70;;;3.30;;
37425;SDS011;23285;50.180;7.036;2022-07-23T09:50:03;4.00;;;3.43;;
37425;SDS011;23285;50.180;7.036;2022-07-23T09:52:53;4.53;;;3.67;;
37425;SDS011;23285;50.180;7.036;2022-07-23T09:55:38;4.90;;;3.70;;
37425;SDS011;23285;50.180;7.036;2022-07-23T09:58:24;5.20;;;3.80;;
37425;SDS011;23285;50.180;7.036;2022-07-23T10:01:11;5.77;;;3.40;;
37425;SDS011;23285;50.180;7.036;2022-07-23T10:03:57;3.97;;;3.57;;
37425;SDS011;23285;50.180;7.036;2022-07-23T10:07:12;6.07;;;3.50;;
37425;SDS011;23285;50.180;7.036;2022-07-23T10:10:17;7.73;;;3.63;;
37425;SDS011;23285;50.180;7.036;2022-07-23T10:13:02;4.97;;;4.00;;
37425;SDS011;23285;50.180;7.036;2022-07-23T10:16:14;5.20;;;4.37;;
37425;SDS011;23285;50.180;7.036;2022-07-23T10:19:00;8.37;;;4.90;;
37425;SDS011;23285;50.180;7.036;2022-07-23T10:21:49;5.63;;;4.73;;
37425;SDS011;23285;50.180;7.036;2022-07-23T10:31:02;4.70;;;4.20;;
37425;SDS011;23285;50.180;7.036;2022-07-23T10:37:17;4.97;;;4.47;;
37425;SDS011;23285;50.180;7.036;2022-07-23T10:40:30;6.47;;;4.80;;
37425;SDS011;23285;50.180;7.036;2022-07-23T10:43:16;5.87;;;4.73;;
37425;SDS011;23285;50.180;7.036;2022-07-23T10:46:43;4.60;;;4.20;;
37425;SDS011;23285;50.180;7.036;2022-07-23T10:49:29;4.60;;;3.97;;
37425;SDS011;23285;50.180;7.036;2022-07-23T10:52:17;4.57;;;4.17;;
37425;SDS011;23285;50.180;7.036;2022-07-23T10:57:54;6.90;;;4.10;;
37425;SDS011;23285;50.180;7.036;2022-07-23T11:00:39;7.00;;;4.13;;
37425;SDS011;23285;50.180;7.036;2022-07-23T11:03:29;9.53;;;4.00;;
37425;SDS011;23285;50.180;7.036;2022-07-23T11:06:23;4.53;;;3.70;;
37425;SDS011;23285;50.180;7.036;2022-07-23T11:09:24;4.40;;;4.00;;
37425;SDS011;23285;50.180;7.036;2022-07-23T11:14:58;5.57;;;4.17;;
37425;SDS011;23285;50.180;7.036;2022-07-23T11:20:37;6.53;;;4.43;;
37425;SDS011;23285;50.180;7.036;2022-07-23T11:23:22;5.17;;;4.17;;
37425;SDS011;23285;50.180;7.036;2022-07-23T11:26:07;7.73;;;4.10;;
37425;SDS011;23285;50.180;7.036;2022-07-23T11:28:53;6.50;;;4.00;;
37425;SDS011;23285;50.180;7.036;2022-07-23T11:31:38;4.40;;;3.87;;
37425;SDS011;23285;50.180;7.036;2022-07-23T11:34:43;6.17;;;4.13;;
37425;SDS011;23285;50.180;7.036;2022-07-23T11:37:34;4.43;;;4.03;;
37425;SDS011;23285;50.180;7.036;2022-07-23T11:40:24;4.57;;;3.97;;
37425;SDS011;23285;50.180;7.036;2022-07-23T11:43:10;4.47;;;3.87;;
37425;SDS011;23285;50.180;7.036;2022-07-23T11:45:59;5.33;;;4.10;;
37425;SDS011;23285;50.180;7.036;2022-07-23T11:48:45;4.47;;;3.70;;
37425;SDS011;23285;50.180;7.036;2022-07-23T11:51:29;6.17;;;4.27;;
37425;SDS011;23285;50.180;7.036;2022-07-23T11:54:17;4.97;;;3.97;;
37425;SDS011;23285;50.180;7.036;2022-07-23T11:57:02;4.67;;;4.27;;
37425;SDS011;23285;50.180;7.036;2022-07-23T11:59:49;4.83;;;3.70;;
37425;SDS011;23285;50.180;7.036;2022-07-23T12:02:37;6.30;;;4.00;;
37425;SDS011;23285;50.180;7.036;2022-07-23T12:05:31;6.03;;;4.33;;
37425;SDS011;23285;50.180;7.036;2022-07-23T12:08:17;4.00;;;3.57;;
37425;SDS011;23285;50.180;7.036;2022-07-23T12:11:03;3.93;;;3.60;;
37425;SDS011;23285;50.180;7.036;2022-07-23T12:13:57;5.00;;;4.50;;
37425;SDS011;23285;50.180;7.036;2022-07-23T12:16:42;9.70;;;4.67;;
37425;SDS011;23285;50.180;7.036;2022-07-23T12:19:27;5.50;;;3.60;;
37425;SDS011;23285;50.180;7.036;2022-07-23T12:22:12;4.27;;;3.87;;
37425;SDS011;23285;50.180;7.036;2022-07-23T12:25:05;4.50;;;3.33;;
37425;SDS011;23285;50.180;7.036;2022-07-23T12:28:05;4.17;;;3.80;;
37425;SDS011;23285;50.180;7.036;2022-07-23T12:30:54;6.93;;;4.27;;
37425;SDS011;23285;50.180;7.036;2022-07-23T12:33:42;5.23;;;3.77;;
37425;SDS011;23285;50.180;7.036;2022-07-23T12:36:36;4.13;;;3.70;;
37425;SDS011;23285;50.180;7.036;2022-07-23T12:39:30;6.27;;;3.97;;
37425;SDS011;23285;50.180;7.036;2022-07-23T12:42:16;4.00;;;3.60;;
37425;SDS011;23285;50.180;7.036;2022-07-23T12:45:09;5.40;;;3.90;;
37425;SDS011;23285;50.180;7.036;2022-07-23T12:47:57;5.57;;;4.20;;
37425;SDS011;23285;50.180;7.036;2022-07-23T12:51:06;4.60;;;4.10;;
37425;SDS011;23285;50.180;7.036;2022-07-23T12:53:53;5.37;;;4.00;;
37425;SDS011;23285;50.180;7.036;2022-07-23T12:56:46;4.40;;;3.80;;
37425;SDS011;23285;50.180;7.036;2022-07-23T12:59:31;4.17;;;3.70;;
37425;SDS011;23285;50.180;7.036;2022-07-23T13:02:16;5.23;;;3.63;;
37425;SDS011;23285;50.180;7.036;2022-07-23T13:05:01;4.40;;;4.00;;
37425;SDS011;23285;50.180;7.036;2022-07-23T13:07:46;6.70;;;4.23;;
37425;SDS011;23285;50.180;7.036;2022-07-23T13:10:31;4.40;;;3.93;;
37425;SDS011;23285;50.180;7.036;2022-07-23T13:13:17;5.17;;;4.20;;
37425;SDS011;23285;50.180;7.036;2022-07-23T13:16:05;4.33;;;3.90;;
37425;SDS011;23285;50.180;7.036;2022-07-23T13:18:50;4.57;;;4.17;;
37425;SDS011;23285;50.180;7.036;2022-07-23T13:21:35;5.10;;;3.70;;
37425;SDS011;23285;50.180;7.036;2022-07-23T13:24:21;3.93;;;3.53;;
37425;SDS011;23285;50.180;7.036;2022-07-23T13:27:06;7.33;;;4.00;;
37425;SDS011;23285;50.180;7.036;2022-07-23T13:29:52;5.57;;;4.13;;
37425;SDS011;23285;50.180;7.036;2022-07-23T13:32:38;6.50;;;4.30;;
37425;SDS011;23285;50.180;7.036;2022-07-23T13:35:23;4.87;;;4.20;;
37425;SDS011;23285;50.180;7.036;2022-07-23T13:38:08;5.17;;;4.00;;
37425;SDS011;23285;50.180;7.036;2022-07-23T13:40:53;4.40;;;3.40;;
37425;SDS011;23285;50.180;7.036;2022-07-23T13:43:39;4.83;;;4.43;;
37425;SDS011;23285;50.180;7.036;2022-07-23T13:46:24;4.40;;;3.57;;
37425;SDS011;23285;50.180;7.036;2022-07-23T13:49:09;6.30;;;4.00;;
37425;SDS011;23285;50.180;7.036;2022-07-23T13:51:54;5.10;;;3.77;;
37425;SDS011;23285;50.180;7.036;2022-07-23T13:54:41;3.90;;;3.37;;
37425;SDS011;23285;50.180;7.036;2022-07-23T13:57:26;5.83;;;3.93;;
37425;SDS011;23285;50.180;7.036;2022-07-23T14:00:11;4.53;;;4.10;;
37425;SDS011;23285;50.180;7.036;2022-07-23T14:02:57;4.43;;;3.67;;
37425;SDS011;23285;50.180;7.036;2022-07-23T14:05:43;4.10;;;3.70;;
37425;SDS011;23285;50.180;7.036;2022-07-23T14:08:28;3.70;;;3.40;;
37425;SDS011;23285;50.180;7.036;2022-07-23T14:11:13;3.90;;;3.47;;
37425;SDS011;23285;50.180;7.036;2022-07-23T14:13:58;4.47;;;3.60;;
37425;SDS011;23285;50.180;7.036;2022-07-23T14:16:45;4.27;;;3.63;;
37425;SDS011;23285;50.180;7.036;2022-07-23T14:19:30;3.83;;;3.47;;
37425;SDS011;23285;50.180;7.036;2022-07-23T14:22:15;6.00;;;3.83;;
37425;SDS011;23285;50.180;7.036;2022-07-23T14:25:00;5.83;;;3.37;;
37425;SDS011;23285;50.180;7.036;2022-07-23T14:27:46;3.80;;;3.40;;
37425;SDS011;23285;50.180;7.036;2022-07-23T14:30:31;3.90;;;3.60;;
37425;SDS011;23285;50.180;7.036;2022-07-23T14:33:16;6.63;;;4.13;;
37425;SDS011;23285;50.180;7.036;2022-07-23T14:36:02;4.17;;;3.73;;
37425;SDS011;23285;50.180;7.036;2022-07-23T14:38:47;3.77;;;3.27;;
37425;SDS011;23285;50.180;7.036;2022-07-23T14:41:32;4.27;;;3.60;;
37425;SDS011;23285;50.180;7.036;2022-07-23T14:44:18;4.13;;;3.73;;
37425;SDS011;23285;50.180;7.036;2022-07-23T14:47:03;4.33;;;3.53;;
37425;SDS011;23285;50.180;7.036;2022-07-23T14:49:49;4.67;;;3.70;;
37425;SDS011;23285;50.180;7.036;2022-07-23T14:52:34;5.00;;;3.80;;
37425;SDS011;23285;50.180;7.036;2022-07-23T14:55:19;4.33;;;3.93;;
37425;SDS011;23285;50.180;7.036;2022-07-23T14:58:04;4.07;;;3.37;;
37425;SDS011;23285;50.180;7.036;2022-07-23T15:00:49;5.47;;;3.80;;
37425;SDS011;23285;50.180;7.036;2022-07-23T15:03:35;4.40;;;4.00;;
37425;SDS011;23285;50.180;7.036;2022-07-23T15:06:20;6.23;;;3.63;;
37425;SDS011;23285;50.180;7.036;2022-07-23T15:09:05;3.73;;;3.37;;
37425;SDS011;23285;50.180;7.036;2022-07-23T15:11:50;9.20;;;4.30;;
37425;SDS011;23285;50.180;7.036;2022-07-23T15:14:36;5.27;;;4.03;;
37425;SDS011;23285;50.180;7.036;2022-07-23T15:17:21;5.23;;;4.00;;
37425;SDS011;23285;50.180;7.036;2022-07-23T15:20:06;9.10;;;4.03;;
37425;SDS011;23285;50.180;7.036;2022-07-23T15:22:51;5.57;;;3.97;;
37425;SDS011;23285;50.180;7.036;2022-07-23T15:25:36;5.67;;;3.93;;
37425;SDS011;23285;50.180;7.036;2022-07-23T15:28:22;8.57;;;4.03;;
37425;SDS011;23285;50.180;7.036;2022-07-23T15:31:07;5.10;;;4.00;;
37425;SDS011;23285;50.180;7.036;2022-07-23T15:33:53;5.87;;;4.37;;
37425;SDS011;23285;50.180;7.036;2022-07-23T15:36:38;5.97;;;4.13;;
37425;SDS011;23285;50.180;7.036;2022-07-23T15:39:23;4.63;;;4.07;;
37425;SDS011;23285;50.180;7.036;2022-07-23T15:42:08;7.17;;;3.90;;
37425;SDS011;23285;50.180;7.036;2022-07-23T15:44:53;5.90;;;4.10;;
37425;SDS011;23285;50.180;7.036;2022-07-23T15:47:39;5.63;;;3.80;;
37425;SDS011;23285;50.180;7.036;2022-07-23T15:50:25;5.13;;;4.10;;
37425;SDS011;23285;50.180;7.036;2022-07-23T15:53:10;6.33;;;4.47;;
37425;SDS011;23285;50.180;7.036;2022-07-23T15:55:56;4.60;;;3.90;;
37425;SDS011;23285;50.180;7.036;2022-07-23T15:58:41;4.43;;;4.03;;
37425;SDS011;23285;50.180;7.036;2022-07-23T16:01:27;4.40;;;4.00;;
37425;SDS011;23285;50.180;7.036;2022-07-23T16:04:15;5.27;;;3.87;;
37425;SDS011;23285;50.180;7.036;2022-07-23T16:07:00;5.17;;;3.97;;
37425;SDS011;23285;50.180;7.036;2022-07-23T16:09:46;4.90;;;3.60;;
37425;SDS011;23285;50.180;7.036;2022-07-23T16:12:31;3.67;;;3.20;;
37425;SDS011;23285;50.180;7.036;2022-07-23T16:15:16;4.27;;;3.87;;
37425;SDS011;23285;50.180;7.036;2022-07-23T16:18:02;5.93;;;4.10;;
37425;SDS011;23285;50.180;7.036;2022-07-23T16:20:50;11.27;;;4.43;;
37425;SDS011;23285;50.180;7.036;2022-07-23T16:23:36;6.63;;;3.77;;
37425;SDS011;23285;50.180;7.036;2022-07-23T16:26:21;5.17;;;4.17;;
37425;SDS011;23285;50.180;7.036;2022-07-23T16:29:06;4.60;;;3.83;;
37425;SDS011;23285;50.180;7.036;2022-07-23T16:31:51;4.37;;;3.80;;
37425;SDS011;23285;50.180;7.036;2022-07-23T16:34:37;4.30;;;3.77;;
37425;SDS011;23285;50.180;7.036;2022-07-23T16:37:22;5.47;;;4.00;;
37425;SDS011;23285;50.180;7.036;2022-07-23T16:40:07;4.73;;;4.33;;
37425;SDS011;23285;50.180;7.036;2022-07-23T16:42:53;5.20;;;4.00;;
37425;SDS011;23285;50.180;7.036;2022-07-23T16:45:39;5.87;;;4.53;;
37425;SDS011;23285;50.180;7.036;2022-07-23T16:48:24;7.00;;;4.90;;
37425;SDS011;23285;50.180;7.036;2022-07-23T16:51:09;5.73;;;4.77;;
37425;SDS011;23285;50.180;7.036;2022-07-23T16:53:55;6.97;;;4.20;;
37425;SDS011;23285;50.180;7.036;2022-07-23T16:56:40;6.87;;;4.67;;
37425;SDS011;23285;50.180;7.036;2022-07-23T16:59:25;6.27;;;4.70;;
37425;SDS011;23285;50.180;7.036;2022-07-23T17:02:10;9.20;;;4.37;;
37425;SDS011;23285;50.180;7.036;2022-07-23T17:04:56;5.10;;;4.20;;
37425;SDS011;23285;50.180;7.036;2022-07-23T17:07:41;5.13;;;4.63;;
37425;SDS011;23285;50.180;7.036;2022-07-23T17:10:26;9.07;;;4.50;;
37425;SDS011;23285;50.180;7.036;2022-07-23T17:13:12;4.77;;;4.37;;
37425;SDS011;23285;50.180;7.036;2022-07-23T17:15:57;6.17;;;4.70;;
37425;SDS011;23285;50.180;7.036;2022-07-23T17:18:42;5.33;;;4.53;;
37425;SDS011;23285;50.180;7.036;2022-07-23T17:21:28;8.53;;;4.40;;
37425;SDS011;23285;50.180;7.036;2022-07-23T17:24:13;12.10;;;4.40;;
37425;SDS011;23285;50.180;7.036;2022-07-23T17:26:58;4.97;;;4.30;;
37425;SDS011;23285;50.180;7.036;2022-07-23T17:29:44;5.87;;;4.00;;
37425;SDS011;23285;50.180;7.036;2022-07-23T17:32:29;5.30;;;4.13;;
37425;SDS011;23285;50.180;7.036;2022-07-23T17:35:14;11.20;;;4.83;;
37425;SDS011;23285;50.180;7.036;2022-07-23T17:37:59;6.30;;;4.10;;
37425;SDS011;23285;50.180;7.036;2022-07-23T17:40:44;6.00;;;5.13;;
37425;SDS011;23285;50.180;7.036;2022-07-23T17:43:29;6.13;;;4.40;;
37425;SDS011;23285;50.180;7.036;2022-07-23T17:46:14;6.87;;;4.77;;
37425;SDS011;23285;50.180;7.036;2022-07-23T17:49:00;7.87;;;4.63;;
37425;SDS011;23285;50.180;7.036;2022-07-23T17:51:45;5.77;;;4.43;;
37425;SDS011;23285;50.180;7.036;2022-07-23T17:54:32;6.70;;;4.00;;
37425;SDS011;23285;50.180;7.036;2022-07-23T17:57:17;4.67;;;4.13;;
37425;SDS011;23285;50.180;7.036;2022-07-23T18:00:04;5.90;;;3.93;;
37425;SDS011;23285;50.180;7.036;2022-07-23T18:02:52;3.93;;;3.63;;
37425;SDS011;23285;50.180;7.036;2022-07-23T18:05:38;5.87;;;3.77;;
37425;SDS011;23285;50.180;7.036;2022-07-23T18:08:25;10.23;;;4.40;;
37425;SDS011;23285;50.180;7.036;2022-07-23T18:11:10;4.33;;;3.90;;
37425;SDS011;23285;50.180;7.036;2022-07-23T18:13:55;5.03;;;4.40;;
37425;SDS011;23285;50.180;7.036;2022-07-23T18:16:41;5.30;;;4.20;;
37425;SDS011;23285;50.180;7.036;2022-07-23T18:19:27;5.93;;;4.20;;
37425;SDS011;23285;50.180;7.036;2022-07-23T18:22:11;5.70;;;4.20;;
37425;SDS011;23285;50.180;7.036;2022-07-23T18:24:57;7.23;;;4.43;;
37425;SDS011;23285;50.180;7.036;2022-07-23T18:27:43;5.47;;;4.00;;
37425;SDS011;23285;50.180;7.036;2022-07-23T18:30:28;4.97;;;4.50;;
37425;SDS011;23285;50.180;7.036;2022-07-23T18:33:14;6.80;;;4.17;;
37425;SDS011;23285;50.180;7.036;2022-07-23T18:35:59;6.20;;;4.20;;
37425;SDS011;23285;50.180;7.036;2022-07-23T18:38:44;6.10;;;3.50;;
37425;SDS011;23285;50.180;7.036;2022-07-23T18:41:30;5.93;;;4.67;;
37425;SDS011;23285;50.180;7.036;2022-07-23T18:44:15;6.23;;;4.00;;
37425;SDS011;23285;50.180;7.036;2022-07-23T18:47:01;7.10;;;4.40;;
37425;SDS011;23285;50.180;7.036;2022-07-23T18:49:46;6.23;;;4.03;;
37425;SDS011;23285;50.180;7.036;2022-07-23T18:52:31;5.83;;;4.03;;
37425;SDS011;23285;50.180;7.036;2022-07-23T18:55:16;5.60;;;4.00;;
37425;SDS011;23285;50.180;7.036;2022-07-23T18:58:01;4.53;;;3.80;;
37425;SDS011;23285;50.180;7.036;2022-07-23T19:00:47;7.13;;;4.00;;
37425;SDS011;23285;50.180;7.036;2022-07-23T19:03:32;6.17;;;4.37;;
37425;SDS011;23285;50.180;7.036;2022-07-23T19:06:18;6.87;;;4.23;;
37425;SDS011;23285;50.180;7.036;2022-07-23T19:09:03;7.70;;;4.07;;
37425;SDS011;23285;50.180;7.036;2022-07-23T19:11:49;5.20;;;4.27;;
37425;SDS011;23285;50.180;7.036;2022-07-23T19:14:34;7.17;;;4.37;;
37425;SDS011;23285;50.180;7.036;2022-07-23T19:17:19;9.70;;;4.30;;
37425;SDS011;23285;50.180;7.036;2022-07-23T19:20:05;4.77;;;3.80;;
37425;SDS011;23285;50.180;7.036;2022-07-23T19:22:52;4.03;;;3.43;;
37425;SDS011;23285;50.180;7.036;2022-07-23T19:25:37;3.97;;;3.50;;
37425;SDS011;23285;50.180;7.036;2022-07-23T19:28:22;8.07;;;4.13;;
37425;SDS011;23285;50.180;7.036;2022-07-23T19:31:07;4.47;;;4.07;;
37425;SDS011;23285;50.180;7.036;2022-07-23T19:33:53;4.97;;;3.53;;
37425;SDS011;23285;50.180;7.036;2022-07-23T19:36:37;4.10;;;3.63;;
37425;SDS011;23285;50.180;7.036;2022-07-23T19:39:22;4.80;;;4.10;;
37425;SDS011;23285;50.180;7.036;2022-07-23T19:42:09;5.73;;;4.20;;
37425;SDS011;23285;50.180;7.036;2022-07-23T19:44:55;4.83;;;4.10;;
37425;SDS011;23285;50.180;7.036;2022-07-23T19:47:40;9.43;;;4.53;;
37425;SDS011;23285;50.180;7.036;2022-07-23T19:50:28;6.77;;;4.33;;
37425;SDS011;23285;50.180;7.036;2022-07-23T19:53:13;4.63;;;4.03;;
37425;SDS011;23285;50.180;7.036;2022-07-23T19:55:59;4.60;;;4.00;;
37425;SDS011;23285;50.180;7.036;2022-07-23T19:58:44;5.73;;;3.90;;
37425;SDS011;23285;50.180;7.036;2022-07-23T20:01:29;5.37;;;4.00;;
37425;SDS011;23285;50.180;7.036;2022-07-23T20:04:15;6.87;;;4.23;;
37425;SDS011;23285;50.180;7.036;2022-07-23T20:07:00;4.93;;;4.00;;
37425;SDS011;23285;50.180;7.036;2022-07-23T20:09:45;4.17;;;3.77;;
37425;SDS011;23285;50.180;7.036;2022-07-23T20:12:30;4.63;;;3.80;;
37425;SDS011;23285;50.180;7.036;2022-07-23T20:15:15;5.57;;;3.70;;
37425;SDS011;23285;50.180;7.036;2022-07-23T20:18:01;6.07;;;3.73;;
37425;SDS011;23285;50.180;7.036;2022-07-23T20:20:46;5.77;;;3.63;;
37425;SDS011;23285;50.180;7.036;2022-07-23T20:23:31;3.80;;;3.50;;
37425;SDS011;23285;50.180;7.036;2022-07-23T20:26:16;3.37;;;3.13;;
37425;SDS011;23285;50.180;7.036;2022-07-23T20:29:02;5.80;;;3.83;;
37425;SDS011;23285;50.180;7.036;2022-07-23T20:31:48;4.13;;;3.73;;
37425;SDS011;23285;50.180;7.036;2022-07-23T20:34:34;4.47;;;3.80;;
37425;SDS011;23285;50.180;7.036;2022-07-23T20:37:19;4.30;;;3.90;;
37425;SDS011;23285;50.180;7.036;2022-07-23T20:40:05;6.33;;;4.37;;
37425;SDS011;23285;50.180;7.036;2022-07-23T20:42:52;5.13;;;3.93;;
37425;SDS011;23285;50.180;7.036;2022-07-23T20:45:37;3.60;;;3.30;;
37425;SDS011;23285;50.180;7.036;2022-07-23T20:48:22;3.67;;;3.37;;
37425;SDS011;23285;50.180;7.036;2022-07-23T20:51:07;5.03;;;3.30;;
37425;SDS011;23285;50.180;7.036;2022-07-23T20:53:53;4.20;;;3.80;;
37425;SDS011;23285;50.180;7.036;2022-07-23T20:56:38;5.30;;;4.03;;
37425;SDS011;23285;50.180;7.036;2022-07-23T20:59:23;4.67;;;4.27;;
37425;SDS011;23285;50.180;7.036;2022-07-23T21:02:08;5.80;;;4.13;;
37425;SDS011;23285;50.180;7.036;2022-07-23T21:04:54;5.10;;;4.10;;
37425;SDS011;23285;50.180;7.036;2022-07-23T21:07:39;4.47;;;3.97;;
37425;SDS011;23285;50.180;7.036;2022-07-23T21:10:25;4.80;;;4.40;;
37425;SDS011;23285;50.180;7.036;2022-07-23T21:13:10;5.77;;;4.23;;
37425;SDS011;23285;50.180;7.036;2022-07-23T21:15:55;5.37;;;4.13;;
37425;SDS011;23285;50.180;7.036;2022-07-23T21:18:40;4.77;;;3.70;;
37425;SDS011;23285;50.180;7.036;2022-07-23T21:21:26;5.17;;;3.60;;
37425;SDS011;23285;50.180;7.036;2022-07-23T21:24:11;4.50;;;4.03;;
37425;SDS011;23285;50.180;7.036;2022-07-23T21:26:56;3.93;;;3.60;;
37425;SDS011;23285;50.180;7.036;2022-07-23T21:29:42;5.10;;;4.60;;
37425;SDS011;23285;50.180;7.036;2022-07-23T21:32:27;5.23;;;3.80;;
37425;SDS011;23285;50.180;7.036;2022-07-23T21:35:13;5.27;;;4.00;;
37425;SDS011;23285;50.180;7.036;2022-07-23T21:37:59;4.27;;;3.87;;
37425;SDS011;23285;50.180;7.036;2022-07-23T21:40:44;4.40;;;4.00;;
37425;SDS011;23285;50.180;7.036;2022-07-23T21:43:29;4.30;;;3.87;;
37425;SDS011;23285;50.180;7.036;2022-07-23T21:46:14;6.20;;;4.20;;
37425;SDS011;23285;50.180;7.036;2022-07-23T21:49:00;4.50;;;4.10;;
37425;SDS011;23285;50.180;7.036;2022-07-23T21:51:45;5.27;;;4.53;;
37425;SDS011;23285;50.180;7.036;2022-07-23T21:54:31;6.80;;;4.23;;
37425;SDS011;23285;50.180;7.036;2022-07-23T21:57:16;4.97;;;4.57;;
37425;SDS011;23285;50.180;7.036;2022-07-23T22:00:03;5.07;;;4.57;;
37425;SDS011;23285;50.180;7.036;2022-07-23T22:02:57;6.23;;;4.13;;
37425;SDS011;23285;50.180;7.036;2022-07-23T22:05:43;5.43;;;4.40;;
37425;SDS011;23285;50.180;7.036;2022-07-23T22:08:28;4.63;;;4.13;;
37425;SDS011;23285;50.180;7.036;2022-07-23T22:11:13;5.27;;;4.03;;
37425;SDS011;23285;50.180;7.036;2022-07-23T22:13:59;7.13;;;4.10;;
37425;SDS011;23285;50.180;7.036;2022-07-23T22:16:45;4.90;;;3.83;;
37425;SDS011;23285;50.180;7.036;2022-07-23T22:19:30;3.63;;;3.33;;
37425;SDS011;23285;50.180;7.036;2022-07-23T22:22:15;4.20;;;3.80;;
37425;SDS011;23285;50.180;7.036;2022-07-23T22:25:00;4.43;;;4.00;;
37425;SDS011;23285;50.180;7.036;2022-07-23T22:27:46;4.40;;;4.00;;
37425;SDS011;23285;50.180;7.036;2022-07-23T22:30:31;5.03;;;4.57;;
37425;SDS011;23285;50.180;7.036;2022-07-23T22:33:16;3.83;;;3.53;;
37425;SDS011;23285;50.180;7.036;2022-07-23T22:36:03;4.20;;;3.80;;
37425;SDS011;23285;50.180;7.036;2022-07-23T22:38:48;4.87;;;4.37;;
37425;SDS011;23285;50.180;7.036;2022-07-23T22:41:33;6.17;;;4.13;;
37425;SDS011;23285;50.180;7.036;2022-07-23T22:44:19;4.70;;;4.07;;
37425;SDS011;23285;50.180;7.036;2022-07-23T22:47:04;4.73;;;4.33;;
37425;SDS011;23285;50.180;7.036;2022-07-23T22:49:49;4.83;;;4.43;;
37425;SDS011;23285;50.180;7.036;2022-07-23T22:52:34;5.33;;;4.60;;
37425;SDS011;23285;50.180;7.036;2022-07-23T22:55:19;4.73;;;3.97;;
37425;SDS011;23285;50.180;7.036;2022-07-23T22:58:04;5.43;;;3.97;;
37425;SDS011;23285;50.180;7.036;2022-07-23T23:00:49;4.70;;;4.10;;